Time;durP1;ratioP1;P1;durP2;ratioP2;P2;SDS_P1;SDS_P2;PMS_P1;PMS_P2;Temp;Humidity;BMP_temperature;BMP_pressure;BME280_temperature;BME280_humidity;BME280_pressure;Samples;Min_cycle;Max_cycle;Signal;HPM_P1;HPM_P2
2023/10/31 00:00:48;;;;;;;2.95;1.38;;;11.00;99.90;;;;;;5025753;28;20214;-83
2023/10/31 00:03:15;;;;;;;1.45;1.25;;;11.00;99.90;;;;;;5025497;28;20196;-82
2023/10/31 00:05:42;;;;;;;1.60;1.17;;;10.90;99.90;;;;;;5031129;28;20210;-82
2023/10/31 00:08:10;;;;;;;1.10;0.93;;;10.90;99.90;;;;;;5030008;28;20198;-82
2023/10/31 00:10:37;;;;;;;1.15;1.05;;;10.90;99.90;;;;;;5031519;28;20546;-82
2023/10/31 00:13:04;;;;;;;1.88;1.02;;;10.90;99.90;;;;;;5033186;28;21034;-82
2023/10/31 00:15:31;;;;;;;2.00;0.77;;;10.80;99.90;;;;;;5029411;28;20817;-82
2023/10/31 00:17:58;;;;;;;1.77;0.90;;;10.80;99.90;;;;;;5031788;28;20195;-82
2023/10/31 00:20:25;;;;;;;1.58;0.80;;;10.70;99.90;;;;;;5031806;28;20567;-82
2023/10/31 00:22:51;;;;;;;0.60;0.60;;;10.60;99.90;;;;;;5035737;28;20193;-81
2023/10/31 00:25:20;;;;;;;0.70;0.70;;;10.50;99.90;;;;;;5028450;28;20217;-82
2023/10/31 00:27:47;;;;;;;0.70;0.65;;;10.50;99.90;;;;;;5032835;28;20644;-82
2023/10/31 00:30:14;;;;;;;0.60;0.60;;;10.40;99.90;;;;;;5030224;28;20221;-82
2023/10/31 00:32:41;;;;;;;2.05;0.70;;;10.40;99.90;;;;;;5033134;28;20191;-82
2023/10/31 00:35:08;;;;;;;2.42;2.00;;;10.40;99.90;;;;;;5029327;28;20201;-82
2023/10/31 00:37:35;;;;;;;0.70;0.70;;;10.40;99.90;;;;;;5029053;28;20197;-82
2023/10/31 00:40:02;;;;;;;0.95;0.88;;;10.30;99.90;;;;;;5028117;28;20228;-83
2023/10/31 00:42:30;;;;;;;1.50;1.40;;;10.30;99.90;;;;;;5030512;28;20195;-82
2023/10/31 00:44:57;;;;;;;2.70;0.90;;;10.30;99.90;;;;;;5033768;28;20191;-82
2023/10/31 00:47:24;;;;;;;0.60;0.60;;;10.40;99.90;;;;;;5028728;28;20646;-82
2023/10/31 00:49:53;;;;;;;1.40;0.63;;;10.40;99.90;;;;;;5033215;28;20197;-81
2023/10/31 00:52:19;;;;;;;1.13;0.93;;;10.40;99.90;;;;;;5032090;28;20278;-82
2023/10/31 00:54:46;;;;;;;0.70;0.70;;;10.40;99.90;;;;;;5031282;28;20199;-81
2023/10/31 00:57:13;;;;;;;0.70;0.70;;;10.30;99.90;;;;;;5031521;28;20213;-82
2023/10/31 00:59:41;;;;;;;1.42;0.52;;;10.30;99.90;;;;;;5032168;28;20199;-82
2023/10/31 01:02:08;;;;;;;0.60;0.60;;;10.30;99.90;;;;;;5026997;28;20661;-82
2023/10/31 01:04:37;;;;;;;1.90;0.50;;;10.20;99.90;;;;;;5024958;28;20647;-81
2023/10/31 01:07:04;;;;;;;1.38;0.80;;;10.20;99.90;;;;;;5031099;28;20194;-82
2023/10/31 01:09:30;;;;;;;2.28;0.70;;;10.20;99.90;;;;;;5030957;28;20647;-82
2023/10/31 01:11:57;;;;;;;0.77;0.70;;;10.20;99.90;;;;;;5026730;28;20201;-82
2023/10/31 01:14:24;;;;;;;0.70;0.70;;;10.20;99.90;;;;;;5032993;28;20567;-82
2023/10/31 01:16:52;;;;;;;0.75;0.50;;;10.20;99.90;;;;;;5030901;28;20662;-82
2023/10/31 01:19:19;;;;;;;0.60;0.60;;;10.20;99.90;;;;;;5032339;28;20206;-81
2023/10/31 01:21:46;;;;;;;1.23;0.50;;;10.30;99.90;;;;;;5030551;28;20268;-82
2023/10/31 01:24:13;;;;;;;0.57;0.57;;;10.20;99.90;;;;;;5026919;28;20277;-82
2023/10/31 01:26:40;;;;;;;0.63;0.55;;;10.20;99.90;;;;;;5033044;28;20296;-82
2023/10/31 01:29:07;;;;;;;0.47;0.47;;;10.30;99.90;;;;;;5031798;28;20199;-82
2023/10/31 01:31:36;;;;;;;0.50;0.50;;;10.40;99.90;;;;;;5024893;28;20223;-82
2023/10/31 01:34:05;;;;;;;0.40;0.40;;;10.40;99.90;;;;;;5028526;28;20609;-83
2023/10/31 01:36:31;;;;;;;0.75;0.50;;;10.40;99.90;;;;;;5032143;28;20198;-82
2023/10/31 01:38:59;;;;;;;1.25;0.57;;;10.40;99.90;;;;;;5030588;28;20197;-83
2023/10/31 01:41:25;;;;;;;0.75;0.40;;;10.40;99.90;;;;;;5032716;28;20868;-82
2023/10/31 01:43:52;;;;;;;0.65;0.65;;;10.30;99.90;;;;;;5028465;28;20194;-82
2023/10/31 01:46:19;;;;;;;0.60;0.60;;;10.30;99.90;;;;;;5027863;28;20196;-82
2023/10/31 01:48:46;;;;;;;0.63;0.63;;;10.30;99.90;;;;;;5027540;28;20194;-82
2023/10/31 01:51:15;;;;;;;0.63;0.60;;;10.30;99.90;;;;;;5029813;28;20319;-82
2023/10/31 01:53:42;;;;;;;0.65;0.65;;;10.30;99.90;;;;;;5028563;28;20282;-82
2023/10/31 01:56:09;;;;;;;1.90;0.90;;;10.30;99.90;;;;;;5026651;28;20213;-82
2023/10/31 01:58:37;;;;;;;0.50;0.50;;;10.30;99.90;;;;;;5026016;28;20197;-83
2023/10/31 02:01:05;;;;;;;0.50;0.50;;;10.30;99.90;;;;;;5029598;28;20214;-83
2023/10/31 02:03:33;;;;;;;0.68;0.68;;;10.30;99.90;;;;;;5030646;28;20670;-81
2023/10/31 02:06:00;;;;;;;0.70;0.70;;;10.20;99.90;;;;;;5029672;28;20197;-81
2023/10/31 02:08:28;;;;;;;0.47;0.47;;;10.30;99.90;;;;;;5024262;28;20191;-82
2023/10/31 02:10:55;;;;;;;0.47;0.47;;;10.40;99.90;;;;;;5028220;28;20199;-82
2023/10/31 02:13:22;;;;;;;0.50;0.50;;;10.40;99.90;;;;;;5024965;28;20198;-82
2023/10/31 02:15:49;;;;;;;1.05;0.50;;;10.40;99.90;;;;;;5028627;28;20207;-82
2023/10/31 02:18:17;;;;;;;1.55;0.45;;;10.30;99.90;;;;;;5027487;28;20205;-82
2023/10/31 02:20:44;;;;;;;0.30;0.30;;;10.30;99.90;;;;;;5026865;28;20301;-82
2023/10/31 02:23:13;;;;;;;0.50;0.50;;;10.30;99.90;;;;;;5029305;28;20281;-82
2023/10/31 02:25:40;;;;;;;0.50;0.50;;;10.20;99.90;;;;;;5030266;28;20211;-82
2023/10/31 02:28:05;;;;;;;1.40;0.50;;;10.30;99.90;;;;;;5029203;28;20634;-82
2023/10/31 02:30:32;;;;;;;0.50;0.50;;;10.20;99.90;;;;;;5032826;28;20200;-82
2023/10/31 02:32:59;;;;;;;0.50;0.50;;;10.20;99.90;;;;;;5028260;28;20191;-82
2023/10/31 02:35:26;;;;;;;0.70;0.50;;;10.20;99.90;;;;;;5028994;28;20209;-82
2023/10/31 02:37:53;;;;;;;0.28;0.28;;;10.20;99.90;;;;;;5029611;28;20193;-82
2023/10/31 02:40:21;;;;;;;0.30;0.30;;;10.20;99.90;;;;;;5029797;28;20204;-82
2023/10/31 02:42:48;;;;;;;0.50;0.50;;;10.20;99.90;;;;;;5029442;28;20190;-82
2023/10/31 02:45:15;;;;;;;0.40;0.40;;;10.10;99.90;;;;;;5028180;28;20198;-82
2023/10/31 02:47:42;;;;;;;0.35;0.35;;;10.20;99.90;;;;;;5027426;28;20273;-82
2023/10/31 02:50:09;;;;;;;0.25;0.25;;;10.10;99.90;;;;;;5029898;28;20191;-82
2023/10/31 02:52:36;;;;;;;0.50;0.50;;;10.10;99.90;;;;;;5031292;28;20207;-82
2023/10/31 02:55:04;;;;;;;0.50;0.50;;;10.00;99.90;;;;;;5031430;28;20248;-82
2023/10/31 02:57:32;;;;;;;0.57;0.52;;;10.10;99.90;;;;;;5026563;28;20195;-82
2023/10/31 02:59:59;;;;;;;1.30;0.40;;;10.10;99.90;;;;;;5031343;28;20195;-82
2023/10/31 03:02:26;;;;;;;0.55;0.50;;;10.00;99.90;;;;;;5025344;28;20240;-82
2023/10/31 03:04:53;;;;;;;0.30;0.30;;;10.00;99.90;;;;;;5031488;28;20202;-82
2023/10/31 03:07:20;;;;;;;0.50;0.50;;;10.00;99.90;;;;;;5032463;28;20198;-82
2023/10/31 03:09:46;;;;;;;2.53;0.40;;;10.00;99.90;;;;;;5036568;28;20195;-82
2023/10/31 03:12:13;;;;;;;0.68;0.68;;;10.00;99.90;;;;;;5031071;28;20201;-82
2023/10/31 03:14:43;;;;;;;0.70;0.40;;;10.00;99.90;;;;;;5033860;28;20195;-82
2023/10/31 03:17:10;;;;;;;0.40;0.40;;;10.00;99.90;;;;;;5033081;28;20197;-82
2023/10/31 03:19:37;;;;;;;0.50;0.40;;;10.00;99.90;;;;;;5033082;28;20202;-83
2023/10/31 03:22:03;;;;;;;0.50;0.50;;;9.90;99.90;;;;;;5028982;28;20224;-83
2023/10/31 03:24:30;;;;;;;0.50;0.50;;;9.90;99.90;;;;;;5031175;28;20199;-82
2023/10/31 03:26:57;;;;;;;0.55;0.55;;;9.90;99.90;;;;;;5030520;28;20361;-82
2023/10/31 03:29:24;;;;;;;0.90;0.65;;;9.90;99.90;;;;;;5028615;28;20210;-82
2023/10/31 03:31:52;;;;;;;0.40;0.40;;;9.80;99.90;;;;;;5029939;28;20238;-82
2023/10/31 03:34:19;;;;;;;1.20;0.65;;;9.80;99.90;;;;;;5032039;28;20640;-82
2023/10/31 03:36:46;;;;;;;0.30;0.30;;;9.70;99.90;;;;;;5033215;28;20198;-82
2023/10/31 03:39:13;;;;;;;0.45;0.45;;;9.80;99.90;;;;;;5034525;28;20199;-82
2023/10/31 03:41:42;;;;;;;0.50;0.50;;;9.80;99.90;;;;;;5028644;28;20225;-82
2023/10/31 03:44:09;;;;;;;0.40;0.40;;;9.80;99.90;;;;;;5027536;28;20242;-82
2023/10/31 03:46:36;;;;;;;0.50;0.50;;;9.90;99.90;;;;;;5031104;28;20215;-83
2023/10/31 03:49:07;;;;;;;0.40;0.40;;;9.90;99.90;;;;;;5031141;28;20644;-82
2023/10/31 03:51:34;;;;;;;0.52;0.52;;;9.90;99.90;;;;;;5031860;28;20281;-82
2023/10/31 03:54:01;;;;;;;0.60;0.60;;;9.90;99.90;;;;;;5033384;28;20198;-82
2023/10/31 03:56:27;;;;;;;0.40;0.40;;;10.00;99.90;;;;;;5030790;28;20201;-82
2023/10/31 03:58:54;;;;;;;0.50;0.50;;;10.00;99.90;;;;;;5025061;28;20561;-82
2023/10/31 04:01:21;;;;;;;1.60;0.50;;;10.00;99.90;;;;;;5030393;28;20223;-82
2023/10/31 04:03:48;;;;;;;1.00;0.60;;;10.00;99.90;;;;;;5031692;28;20186;-82
2023/10/31 04:06:16;;;;;;;0.40;0.40;;;10.00;99.90;;;;;;5036685;28;20209;-82
2023/10/31 04:08:43;;;;;;;0.47;0.47;;;10.00;99.90;;;;;;5030146;28;20198;-82
2023/10/31 04:11:10;;;;;;;0.77;0.60;;;10.00;99.90;;;;;;5027609;28;20281;-83
2023/10/31 04:13:37;;;;;;;0.68;0.50;;;10.00;99.90;;;;;;5032669;28;20198;-82
2023/10/31 04:16:04;;;;;;;0.77;0.77;;;9.80;99.90;;;;;;5031778;28;20250;-82
2023/10/31 04:18:31;;;;;;;0.47;0.43;;;9.90;99.90;;;;;;5033573;28;20627;-82
2023/10/31 04:20:58;;;;;;;1.95;0.95;;;9.90;99.90;;;;;;5032036;28;20631;-82
2023/10/31 04:23:26;;;;;;;0.85;0.75;;;10.00;99.90;;;;;;5034637;28;20541;-82
2023/10/31 04:25:53;;;;;;;0.98;0.50;;;10.00;99.90;;;;;;5030452;28;20208;-84
2023/10/31 04:28:20;;;;;;;0.70;0.65;;;10.00;99.90;;;;;;5028330;28;20190;-82
2023/10/31 04:30:47;;;;;;;0.98;0.85;;;9.90;99.90;;;;;;5032927;28;20197;-82
2023/10/31 04:33:14;;;;;;;0.75;0.73;;;9.90;99.90;;;;;;5028346;28;20577;-82
2023/10/31 04:35:41;;;;;;;1.25;0.57;;;9.80;99.90;;;;;;5032606;28;20194;-82
2023/10/31 04:38:08;;;;;;;2.05;0.45;;;9.80;99.90;;;;;;5030336;28;20201;-82
2023/10/31 04:40:36;;;;;;;5.05;0.60;;;9.90;99.90;;;;;;5032071;28;20194;-82
2023/10/31 04:43:03;;;;;;;1.45;0.52;;;9.90;99.90;;;;;;5029519;28;20220;-82
2023/10/31 04:45:30;;;;;;;0.82;0.70;;;9.90;99.90;;;;;;5028561;28;20516;-82
2023/10/31 04:47:57;;;;;;;0.70;0.70;;;9.90;99.90;;;;;;5031404;28;20201;-82
2023/10/31 04:50:24;;;;;;;1.45;0.90;;;9.80;99.90;;;;;;5028364;28;20198;-82
2023/10/31 04:52:50;;;;;;;0.80;0.80;;;9.80;99.90;;;;;;5033593;28;20821;-82
2023/10/31 04:55:18;;;;;;;1.17;0.90;;;9.70;99.90;;;;;;5031850;28;20562;-82
2023/10/31 04:57:48;;;;;;;0.65;0.60;;;9.70;99.90;;;;;;5029761;28;20191;-82
2023/10/31 05:00:16;;;;;;;1.23;0.90;;;9.60;99.90;;;;;;5028362;28;20213;-82
2023/10/31 05:02:43;;;;;;;4.00;1.00;;;9.70;99.90;;;;;;5032188;28;20233;-82
2023/10/31 05:05:10;;;;;;;1.10;0.70;;;9.80;99.90;;;;;;5028649;28;20191;-82
2023/10/31 05:07:37;;;;;;;0.90;0.73;;;9.80;99.90;;;;;;5027088;28;20202;-82
2023/10/31 05:10:04;;;;;;;1.30;0.65;;;9.80;99.90;;;;;;5032012;28;20281;-82
2023/10/31 05:12:31;;;;;;;2.28;0.70;;;9.80;99.90;;;;;;5026441;28;20194;-82
2023/10/31 05:14:59;;;;;;;1.63;0.80;;;9.80;99.90;;;;;;5025630;28;20281;-82
2023/10/31 05:17:26;;;;;;;3.22;1.02;;;9.90;99.90;;;;;;5032703;28;20198;-82
2023/10/31 05:19:52;;;;;;;1.00;0.77;;;9.80;99.90;;;;;;5024516;28;20225;-82
2023/10/31 05:22:19;;;;;;;1.40;0.90;;;9.80;99.90;;;;;;5030475;28;20225;-82
2023/10/31 05:24:46;;;;;;;1.05;0.93;;;9.70;99.90;;;;;;5032547;28;20209;-82
2023/10/31 05:27:13;;;;;;;1.10;0.95;;;9.60;99.90;;;;;;5029463;28;20213;-82
2023/10/31 05:29:40;;;;;;;1.58;0.80;;;9.60;99.90;;;;;;5030751;28;20193;-82
2023/10/31 05:32:09;;;;;;;3.85;1.08;;;9.60;99.90;;;;;;5029344;28;20195;-82
2023/10/31 05:34:36;;;;;;;1.00;0.90;;;9.70;99.90;;;;;;5030590;28;20233;-82
2023/10/31 05:37:05;;;;;;;2.15;0.90;;;9.70;99.90;;;;;;5027707;28;20203;-81
2023/10/31 05:39:32;;;;;;;0.93;0.93;;;9.60;99.90;;;;;;5027757;28;20284;-82
2023/10/31 05:41:59;;;;;;;1.33;1.08;;;9.50;99.90;;;;;;5030728;28;20210;-82
2023/10/31 05:44:26;;;;;;;1.70;1.20;;;9.60;99.90;;;;;;5029586;28;20194;-82
2023/10/31 05:46:53;;;;;;;2.10;0.85;;;9.60;99.90;;;;;;5031713;28;20559;-82
2023/10/31 05:49:22;;;;;;;1.58;0.80;;;9.60;99.90;;;;;;5033322;28;21139;-82
2023/10/31 05:51:51;;;;;;;1.30;0.80;;;9.60;99.90;;;;;;5031446;28;20210;-82
2023/10/31 05:54:18;;;;;;;2.45;0.95;;;9.60;99.90;;;;;;5029742;28;20225;-82
2023/10/31 05:56:45;;;;;;;1.40;0.88;;;9.60;99.90;;;;;;5031208;28;20186;-81
2023/10/31 05:59:12;;;;;;;0.90;0.90;;;9.50;99.90;;;;;;5027986;28;21442;-82
2023/10/31 06:01:39;;;;;;;3.40;0.80;;;9.60;99.90;;;;;;5031302;28;20253;-82
2023/10/31 06:04:06;;;;;;;3.67;1.20;;;9.60;99.90;;;;;;5029106;28;20191;-82
2023/10/31 06:06:39;;;;;;;1.83;0.90;;;9.60;99.90;;;;;;5024502;28;20193;-82
2023/10/31 06:09:06;;;;;;;3.22;1.08;;;9.60;99.90;;;;;;5028076;28;20202;-81
2023/10/31 06:11:32;;;;;;;2.30;0.93;;;9.60;99.90;;;;;;5023130;28;20281;-83
2023/10/31 06:14:00;;;;;;;2.90;0.90;;;9.70;99.90;;;;;;5031310;28;20195;-84
2023/10/31 06:16:27;;;;;;;2.45;1.10;;;9.60;99.90;;;;;;5023973;28;20201;-83
2023/10/31 06:18:54;;;;;;;0.98;0.80;;;9.70;99.90;;;;;;5009176;28;20198;-82
2023/10/31 06:21:21;;;;;;;0.88;0.82;;;9.70;99.90;;;;;;5024164;28;20210;-82
2023/10/31 06:23:50;;;;;;;2.15;1.10;;;9.80;99.90;;;;;;5025834;28;20210;-82
2023/10/31 06:26:17;;;;;;;2.15;1.10;;;9.90;99.90;;;;;;5027844;28;20199;-83
2023/10/31 06:28:44;;;;;;;3.00;0.90;;;9.90;99.90;;;;;;5024680;28;20192;-82
2023/10/31 06:31:11;;;;;;;2.65;1.00;;;9.90;99.90;;;;;;5028872;28;20195;-83
2023/10/31 06:33:37;;;;;;;1.67;0.90;;;9.80;99.90;;;;;;5027050;28;20610;-83
2023/10/31 06:36:06;;;;;;;1.67;1.05;;;9.80;99.90;;;;;;5027173;28;20270;-82
2023/10/31 06:38:33;;;;;;;0.95;0.90;;;9.80;99.90;;;;;;5026798;28;20293;-82
2023/10/31 06:41:01;;;;;;;2.58;1.20;;;9.80;99.90;;;;;;5033615;28;20197;-82
2023/10/31 06:43:28;;;;;;;2.63;1.10;;;9.80;99.90;;;;;;5032830;28;20223;-82
2023/10/31 06:45:56;;;;;;;2.42;1.00;;;9.90;99.90;;;;;;5034794;28;20201;-83
2023/10/31 06:48:23;;;;;;;3.00;1.20;;;9.80;99.90;;;;;;5032976;28;20199;-83
2023/10/31 06:50:50;;;;;;;1.35;1.02;;;9.80;99.90;;;;;;5016252;28;20225;-82
2023/10/31 06:53:17;;;;;;;2.33;1.20;;;9.80;99.90;;;;;;5033514;28;20203;-83
2023/10/31 06:55:44;;;;;;;1.30;1.10;;;9.90;99.90;;;;;;5031738;28;20191;-82
2023/10/31 06:58:13;;;;;;;1.35;1.10;;;9.90;99.90;;;;;;5030647;28;20191;-83
2023/10/31 07:00:40;;;;;;;2.72;1.30;;;10.00;99.90;;;;;;5032848;28;20186;-82
2023/10/31 07:03:09;;;;;;;2.05;0.95;;;10.00;99.90;;;;;;5030119;28;20262;-82
2023/10/31 07:05:36;;;;;;;1.40;1.30;;;9.90;99.90;;;;;;5032411;28;20248;-82
2023/10/31 07:08:03;;;;;;;2.65;0.90;;;9.90;99.90;;;;;;5033833;28;20190;-83
2023/10/31 07:10:30;;;;;;;2.35;1.20;;;9.80;99.90;;;;;;5030913;28;20397;-83
2023/10/31 07:12:58;;;;;;;0.90;0.90;;;9.80;99.90;;;;;;5036246;28;20190;-82
2023/10/31 07:15:27;;;;;;;1.15;0.95;;;9.80;99.90;;;;;;5033065;28;20304;-83
2023/10/31 07:17:54;;;;;;;1.73;0.98;;;9.80;99.90;;;;;;5033044;28;20201;-82
2023/10/31 07:20:21;;;;;;;1.15;1.00;;;9.80;99.90;;;;;;5028024;28;20194;-83
2023/10/31 07:22:48;;;;;;;0.93;0.90;;;9.90;99.90;;;;;;5033822;28;20210;-82
2023/10/31 07:25:15;;;;;;;1.23;1.10;;;9.90;99.90;;;;;;5029944;28;20206;-83
2023/10/31 07:27:42;;;;;;;1.52;0.88;;;9.90;99.90;;;;;;5031516;28;20209;-83
2023/10/31 07:30:10;;;;;;;1.60;1.23;;;9.90;99.90;;;;;;5030138;28;20209;-83
2023/10/31 07:32:38;;;;;;;1.10;0.80;;;10.00;99.90;;;;;;5034366;28;20231;-83
2023/10/31 07:35:06;;;;;;;2.30;1.00;;;10.00;99.90;;;;;;5032093;28;20190;-82
2023/10/31 07:37:33;;;;;;;1.50;0.90;;;10.10;99.90;;;;;;5029115;28;20191;-81
2023/10/31 07:40:00;;;;;;;3.35;1.20;;;10.10;99.90;;;;;;5033410;28;20194;-83
2023/10/31 07:42:27;;;;;;;2.63;1.25;;;10.20;99.90;;;;;;5034269;28;20222;-83
2023/10/31 07:44:54;;;;;;;2.95;1.88;;;10.20;99.90;;;;;;5031803;28;20191;-84
2023/10/31 07:47:21;;;;;;;4.10;2.80;;;10.20;99.90;;;;;;5026146;28;20205;-83
2023/10/31 07:49:49;;;;;;;2.13;1.90;;;10.40;99.90;;;;;;5030652;28;20772;-84
2023/10/31 07:52:16;;;;;;;0.85;0.85;;;10.50;99.90;;;;;;5029354;28;20217;-83
2023/10/31 07:54:43;;;;;;;2.25;1.00;;;10.40;99.90;;;;;;5031845;28;20201;-84
2023/10/31 07:57:10;;;;;;;3.30;1.30;;;10.30;99.90;;;;;;5028699;28;20552;-83
2023/10/31 07:59:37;;;;;;;1.85;1.20;;;10.30;99.90;;;;;;5030908;28;20203;-83
2023/10/31 08:02:04;;;;;;;1.25;1.15;;;10.20;99.90;;;;;;5032003;28;20290;-83
2023/10/31 08:04:32;;;;;;;1.23;1.10;;;10.20;99.90;;;;;;5034066;28;20203;-84
2023/10/31 08:07:00;;;;;;;1.73;1.15;;;10.20;99.90;;;;;;5030870;28;20198;-84
2023/10/31 08:09:27;;;;;;;5.10;1.38;;;10.20;99.90;;;;;;5032385;28;20201;-84
2023/10/31 08:11:54;;;;;;;1.77;1.00;;;10.30;99.90;;;;;;5032926;28;20195;-84
2023/10/31 08:14:22;;;;;;;3.75;1.27;;;10.40;99.90;;;;;;5033951;28;20198;-83
2023/10/31 08:16:48;;;;;;;2.17;0.98;;;10.50;99.50;;;;;;5032539;28;20671;-83
2023/10/31 08:19:15;;;;;;;2.20;1.00;;;10.60;99.30;;;;;;5032314;28;20199;-83
2023/10/31 08:21:42;;;;;;;1.55;1.00;;;10.70;99.80;;;;;;5032730;28;20195;-83
2023/10/31 08:24:13;;;;;;;3.38;1.10;;;10.70;98.70;;;;;;5032912;28;20214;-83
2023/10/31 08:26:40;;;;;;;2.58;1.20;;;10.80;98.40;;;;;;5022934;28;20190;-83
2023/10/31 08:29:07;;;;;;;3.85;1.33;;;10.80;98.90;;;;;;5031270;28;20207;-83
2023/10/31 08:31:33;;;;;;;3.45;1.05;;;10.70;99.20;;;;;;5031575;28;20197;-83
2023/10/31 08:34:00;;;;;;;7.25;6.18;;;10.60;99.70;;;;;;5025048;28;20201;-83
2023/10/31 08:36:28;;;;;;;2.78;2.03;;;10.60;99.90;;;;;;5030829;28;20206;-83
2023/10/31 08:38:55;;;;;;;2.10;1.67;;;10.60;99.40;;;;;;5032771;28;20241;-83
2023/10/31 08:41:24;;;;;;;4.32;2.20;;;10.70;99.10;;;;;;5032268;28;20201;-82
2023/10/31 08:43:50;;;;;;;2.85;2.00;;;10.70;99.60;;;;;;5031213;28;20239;-83
2023/10/31 08:46:17;;;;;;;5.53;3.13;;;10.70;99.30;;;;;;5034643;28;20293;-83
2023/10/31 08:48:44;;;;;;;4.55;2.30;;;10.70;99.20;;;;;;5015399;28;20552;-83
2023/10/31 08:51:11;;;;;;;1.23;1.00;;;10.70;98.80;;;;;;5033399;28;20210;-83
2023/10/31 08:53:37;;;;;;;3.47;2.10;;;10.70;98.30;;;;;;5026004;28;20197;-85
2023/10/31 08:56:05;;;;;;;4.93;1.10;;;10.60;99.50;;;;;;5030839;28;20365;-85
2023/10/31 08:58:33;;;;;;;3.88;1.30;;;10.60;99.20;;;;;;5031575;28;20194;-83
2023/10/31 09:01:00;;;;;;;4.57;1.17;;;10.70;98.90;;;;;;5033341;28;20198;-83
2023/10/31 09:03:27;;;;;;;4.70;1.85;;;10.50;99.10;;;;;;5031096;28;20214;-82
2023/10/31 09:05:54;;;;;;;3.03;1.70;;;10.60;98.60;;;;;;5029889;28;20235;-82
2023/10/31 09:08:21;;;;;;;4.07;1.67;;;10.60;99.00;;;;;;5029654;28;20612;-82
2023/10/31 09:10:49;;;;;;;4.45;1.95;;;10.80;98.50;;;;;;5028689;28;20273;-82
2023/10/31 09:13:15;;;;;;;2.78;1.65;;;10.80;98.40;;;;;;5031978;28;20558;-83
2023/10/31 09:15:45;;;;;;;5.53;1.17;;;10.80;97.60;;;;;;5032279;28;20281;-83
2023/10/31 09:18:12;;;;;;;2.22;1.35;;;10.70;97.70;;;;;;5030800;28;20198;-84
2023/10/31 09:20:39;;;;;;;3.72;1.90;;;10.80;98.30;;;;;;5031329;28;20510;-82
2023/10/31 09:23:06;;;;;;;3.97;1.70;;;10.80;98.50;;;;;;5032109;28;20565;-83
2023/10/31 09:25:33;;;;;;;8.85;3.63;;;10.80;97.90;;;;;;5031253;28;20217;-83
2023/10/31 09:28:00;;;;;;;17.05;9.38;;;10.70;97.90;;;;;;5031678;28;20290;-83
2023/10/31 09:30:27;;;;;;;5.18;2.00;;;10.70;98.10;;;;;;5033332;28;20801;-83
2023/10/31 09:32:55;;;;;;;25.20;14.48;;;10.70;97.40;;;;;;5033535;28;20191;-83
2023/10/31 09:35:24;;;;;;;6.10;1.55;;;10.90;96.80;;;;;;5025604;28;20199;-82
2023/10/31 09:37:51;;;;;;;6.65;2.85;;;10.90;96.50;;;;;;5029814;28;20227;-83
2023/10/31 09:40:18;;;;;;;3.00;1.10;;;10.90;96.90;;;;;;5023770;28;20186;-82
2023/10/31 09:42:46;;;;;;;11.52;6.60;;;11.00;96.40;;;;;;5032362;28;20277;-82
2023/10/31 09:45:14;;;;;;;4.75;1.40;;;10.90;96.90;;;;;;5026673;28;20226;-82
2023/10/31 09:47:42;;;;;;;5.00;1.67;;;10.80;97.30;;;;;;5028389;28;20191;-83
2023/10/31 09:50:11;;;;;;;3.75;1.50;;;10.90;97.10;;;;;;5024862;28;20646;-83
2023/10/31 09:52:39;;;;;;;4.93;1.70;;;10.80;97.20;;;;;;5029717;28;20211;-82
2023/10/31 09:55:07;;;;;;;2.92;1.40;;;10.90;97.30;;;;;;5025281;28;20198;-83
2023/10/31 09:57:34;;;;;;;9.18;3.90;;;10.80;97.70;;;;;;5026215;28;20198;-83
2023/10/31 10:00:01;;;;;;;8.82;4.25;;;11.00;97.20;;;;;;5028401;28;20190;-82
2023/10/31 10:02:28;;;;;;;4.68;1.40;;;11.00;96.70;;;;;;5028399;28;20210;-83
2023/10/31 10:04:55;;;;;;;4.97;1.88;;;11.10;96.30;;;;;;5033250;28;20686;-83
2023/10/31 10:07:23;;;;;;;5.65;3.30;;;11.00;96.60;;;;;;5025102;28;20193;-83
2023/10/31 10:09:50;;;;;;;3.20;1.33;;;11.10;95.80;;;;;;5027631;28;20221;-82
2023/10/31 10:12:17;;;;;;;3.90;1.65;;;11.30;96.00;;;;;;5030096;28;20210;-83
2023/10/31 10:14:47;;;;;;;3.30;1.60;;;11.20;96.00;;;;;;5036032;28;20198;-82
2023/10/31 10:17:18;;;;;;;1.70;1.20;;;11.20;95.30;;;;;;5032678;28;20229;-83
2023/10/31 10:19:44;;;;;;;5.30;1.45;;;11.20;96.00;;;;;;5026168;28;20278;-83
2023/10/31 10:22:12;;;;;;;4.57;1.35;;;11.30;95.90;;;;;;5032146;28;20187;-83
2023/10/31 10:24:42;;;;;;;1.98;1.35;;;11.30;95.60;;;;;;5033700;28;20313;-82
2023/10/31 10:27:09;;;;;;;14.10;8.80;;;11.30;95.40;;;;;;5027632;28;20187;-82
2023/10/31 10:29:38;;;;;;;10.57;1.70;;;11.30;96.00;;;;;;5031560;28;20197;-83
2023/10/31 10:32:08;;;;;;;2.65;1.17;;;11.30;96.00;;;;;;5033791;28;20202;-84
2023/10/31 10:34:37;;;;;;;4.15;1.23;;;11.30;96.00;;;;;;5032740;28;20194;-85
2023/10/31 10:37:06;;;;;;;2.00;1.15;;;11.40;96.00;;;;;;5034662;28;20609;-84
2023/10/31 10:39:35;;;;;;;2.20;1.20;;;11.40;96.00;;;;;;5034237;28;20562;-86
2023/10/31 10:42:11;;;;;;;3.13;1.13;;;11.40;96.00;;;;;;5041588;28;20199;-83
2023/10/31 10:44:44;;;;;;;5.40;1.40;;;11.50;96.10;;;;;;5035361;28;20210;-83
2023/10/31 10:47:13;;;;;;;4.63;1.27;;;11.50;96.50;;;;;;5032543;28;20194;-84
2023/10/31 10:49:43;;;;;;;4.25;1.55;;;11.50;96.10;;;;;;5037041;28;20190;-83
2023/10/31 10:52:24;;;;;;;4.10;1.30;;;11.50;96.30;;;;;;5035003;28;20305;-83
2023/10/31 10:54:55;;;;;;;4.07;1.38;;;11.50;96.10;;;;;;5031204;28;20212;-82
2023/10/31 10:57:33;;;;;;;3.40;1.58;;;11.60;96.40;;;;;;5033952;28;20234;-82
2023/10/31 11:00:04;;;;;;;3.20;1.10;;;11.60;96.10;;;;;;5031275;28;20190;-82
2023/10/31 11:02:32;;;;;;;5.72;1.70;;;11.60;96.10;;;;;;5033930;28;20194;-82
2023/10/31 11:05:01;;;;;;;2.72;1.48;;;11.70;96.10;;;;;;5030913;28;20313;-87
2023/10/31 11:07:30;;;;;;;1.80;1.38;;;11.70;96.10;;;;;;5037074;28;20677;-86
2023/10/31 11:10:01;;;;;;;1.65;1.00;;;11.70;96.10;;;;;;5034233;28;20199;-85
2023/10/31 11:12:32;;;;;;;2.95;1.27;;;11.80;95.40;;;;;;5033044;28;20651;-83
2023/10/31 11:15:02;;;;;;;3.53;1.50;;;11.80;96.10;;;;;;5029661;28;20201;-83
2023/10/31 11:17:30;;;;;;;1.83;1.13;;;11.80;95.80;;;;;;5030511;28;20281;-83
2023/10/31 11:19:58;;;;;;;2.67;1.40;;;11.70;95.60;;;;;;5031682;28;20197;-83
2023/10/31 11:22:30;;;;;;;2.03;1.30;;;11.80;95.70;;;;;;5031449;28;20205;-83
2023/10/31 11:24:58;;;;;;;3.55;1.40;;;11.80;96.10;;;;;;5031276;28;20683;-83
2023/10/31 11:27:25;;;;;;;3.55;1.55;;;11.90;95.60;;;;;;5030323;28;20194;-83
2023/10/31 11:29:56;;;;;;;2.40;1.48;;;12.00;94.40;;;;;;5031509;28;20201;-83
2023/10/31 11:32:23;;;;;;;4.90;1.52;;;12.20;93.90;;;;;;5032317;28;20203;-83
2023/10/31 11:34:50;;;;;;;2.95;1.30;;;12.30;94.40;;;;;;5033182;28;20260;-83
2023/10/31 11:37:25;;;;;;;5.47;1.20;;;12.20;95.00;;;;;;5032424;28;20313;-90
2023/10/31 11:40:20;;;;;;;4.22;1.38;;;12.20;94.60;;;;;;5031672;28;20627;-82
2023/10/31 11:42:53;;;;;;;3.90;1.50;;;12.20;93.80;;;;;;5030033;28;20277;-82
2023/10/31 11:45:30;;;;;;;3.72;1.40;;;12.20;92.80;;;;;;5028447;28;20218;-83
2023/10/31 11:47:57;;;;;;;5.30;1.58;;;12.20;93.60;;;;;;5025749;28;20199;-83
2023/10/31 11:50:25;;;;;;;4.53;1.80;;;12.20;94.10;;;;;;5031353;28;20194;-83
2023/10/31 11:53:07;;;;;;;5.40;1.50;;;12.30;94.50;;;;;;5032830;28;20638;-84
2023/10/31 11:55:40;;;;;;;2.45;1.40;;;12.30;93.60;;;;;;5027759;28;20202;-83
2023/10/31 11:58:19;;;;;;;2.88;1.60;;;12.30;93.50;;;;;;5026691;28;20198;-84
2023/10/31 12:00:48;;;;;;;3.40;1.48;;;12.40;93.70;;;;;;5029059;28;20557;-84
2023/10/31 12:03:17;;;;;;;1.75;1.20;;;12.40;93.40;;;;;;5038224;28;20285;-84
2023/10/31 12:05:53;;;;;;;3.67;1.30;;;12.50;92.80;;;;;;5045205;28;20191;-83
2023/10/31 12:08:26;;;;;;;1.15;1.05;;;12.50;92.10;;;;;;5040082;28;20205;-82
2023/10/31 12:10:53;;;;;;;3.53;1.38;;;12.60;93.10;;;;;;5035627;28;20191;-84
2023/10/31 12:13:20;;;;;;;2.60;1.30;;;12.60;92.70;;;;;;5025324;28;20690;-83
2023/10/31 12:15:54;;;;;;;3.72;1.10;;;12.80;92.20;;;;;;5029017;28;20667;-83
2023/10/31 12:18:21;;;;;;;3.75;1.60;;;12.70;91.80;;;;;;5033661;28;20201;-85
2023/10/31 12:20:49;;;;;;;2.63;1.38;;;12.70;91.50;;;;;;5031567;28;20285;-84
2023/10/31 12:23:16;;;;;;;4.53;1.10;;;12.80;92.00;;;;;;5031788;28;20195;-84
2023/10/31 12:25:48;;;;;;;3.97;1.30;;;12.90;92.70;;;;;;4993824;28;1170385;-83
2023/10/31 12:28:18;;;;;;;3.88;1.08;;;13.00;92.00;;;;;;5031537;28;20197;-84
2023/10/31 12:30:48;;;;;;;2.75;1.10;;;13.00;91.00;;;;;;5029513;28;20198;-84
2023/10/31 12:33:17;;;;;;;3.30;1.20;;;13.10;91.00;;;;;;5030213;28;20197;-82
2023/10/31 12:35:45;;;;;;;1.85;0.88;;;13.00;91.40;;;;;;5028724;28;20198;-83
2023/10/31 12:38:13;;;;;;;2.10;1.20;;;13.00;91.20;;;;;;5033371;28;20247;-83
2023/10/31 12:40:42;;;;;;;3.20;1.20;;;12.90;90.90;;;;;;5034126;28;20202;-82
2023/10/31 12:43:09;;;;;;;2.65;1.10;;;13.00;91.00;;;;;;5030507;28;20217;-82
2023/10/31 12:45:37;;;;;;;2.75;1.10;;;13.00;91.00;;;;;;5032039;28;20211;-82
2023/10/31 12:48:05;;;;;;;1.88;1.00;;;12.90;90.40;;;;;;5030121;28;20218;-82
2023/10/31 12:50:34;;;;;;;2.10;1.00;;;12.90;87.00;;;;;;5032281;28;20210;-82
2023/10/31 12:53:03;;;;;;;1.90;1.10;;;12.90;89.10;;;;;;5031896;28;20226;-82